Oconomowoc, Wisconsin
Current Conditions -  °F | °C
As of 2:15 PM on Sunday 25 Jan 2015 (Local Time) from KRYV Reporting Station
Clear Clear  
Wind Chill: 16°   Ceiling: Unl
Heat Index: 27°   Visibility: 10mi
Dew Point: 10°   Wind: 13mph
Humidity: 49%   Direction: 40°NE
Pressure: 29.93"   Gusts: 22mph
Location:  43.11°N, 88.5°W
Report Text: KRYV 252015Z AUTO 04011G19KT 10SM CLR M03/M12 A2993 RMK AO2 T10301124
Loading
Personal Weather Stations






























Interactive Weather Map New forecast layout! Learn more

10-Day Weather Forecast

Advertisements
Track Severe Weather on mobile